sensor_id;sensor_type;location;lat;lon;timestamp;P1;durP1;ratioP1;P2;durP2;ratioP2
33270;SDS011;53180;51.344;6.152;2022-12-13T00:01:48;9.07;;;8.38;;
33270;SDS011;53180;51.344;6.152;2022-12-13T00:04:21;10.38;;;9.48;;
33270;SDS011;53180;51.344;6.152;2022-12-13T00:06:51;10.55;;;9.50;;
33270;SDS011;53180;51.344;6.152;2022-12-13T00:09:20;16.60;;;10.48;;
33270;SDS011;53180;51.344;6.152;2022-12-13T00:11:49;9.63;;;8.70;;
33270;SDS011;53180;51.344;6.152;2022-12-13T00:14:18;11.13;;;10.02;;
33270;SDS011;53180;51.344;6.152;2022-12-13T00:16:47;10.55;;;9.65;;
33270;SDS011;53180;51.344;6.152;2022-12-13T00:19:16;11.85;;;10.10;;
33270;SDS011;53180;51.344;6.152;2022-12-13T00:21:46;10.32;;;9.43;;
33270;SDS011;53180;51.344;6.152;2022-12-13T00:24:14;10.70;;;9.75;;
33270;SDS011;53180;51.344;6.152;2022-12-13T00:26:43;10.07;;;9.18;;
33270;SDS011;53180;51.344;6.152;2022-12-13T00:29:11;10.32;;;9.35;;
33270;SDS011;53180;51.344;6.152;2022-12-13T00:31:39;15.30;;;10.30;;
33270;SDS011;53180;51.344;6.152;2022-12-13T00:34:25;11.38;;;9.77;;
33270;SDS011;53180;51.344;6.152;2022-12-13T00:36:55;10.05;;;9.23;;
33270;SDS011;53180;51.344;6.152;2022-12-13T00:41:52;10.70;;;9.60;;
33270;SDS011;53180;51.344;6.152;2022-12-13T00:44:21;11.52;;;8.98;;
33270;SDS011;53180;51.344;6.152;2022-12-13T00:46:49;15.18;;;10.05;;
33270;SDS011;53180;51.344;6.152;2022-12-13T00:49:18;9.50;;;8.70;;
33270;SDS011;53180;51.344;6.152;2022-12-13T00:51:46;9.40;;;8.65;;
33270;SDS011;53180;51.344;6.152;2022-12-13T00:54:16;9.82;;;8.93;;
33270;SDS011;53180;51.344;6.152;2022-12-13T00:56:44;12.07;;;10.98;;
33270;SDS011;53180;51.344;6.152;2022-12-13T00:59:13;11.98;;;9.88;;
33270;SDS011;53180;51.344;6.152;2022-12-13T01:01:42;12.82;;;11.55;;
33270;SDS011;53180;51.344;6.152;2022-12-13T01:04:11;10.55;;;9.52;;
33270;SDS011;53180;51.344;6.152;2022-12-13T01:06:39;15.75;;;10.75;;
33270;SDS011;53180;51.344;6.152;2022-12-13T01:09:13;14.77;;;10.48;;
33270;SDS011;53180;51.344;6.152;2022-12-13T01:11:45;11.77;;;9.43;;
33270;SDS011;53180;51.344;6.152;2022-12-13T01:14:15;16.65;;;10.40;;
33270;SDS011;53180;51.344;6.152;2022-12-13T01:16:45;12.23;;;10.27;;
33270;SDS011;53180;51.344;6.152;2022-12-13T01:19:13;11.30;;;10.30;;
33270;SDS011;53180;51.344;6.152;2022-12-13T01:21:41;10.85;;;9.88;;
33270;SDS011;53180;51.344;6.152;2022-12-13T01:24:10;10.73;;;9.77;;
33270;SDS011;53180;51.344;6.152;2022-12-13T01:26:39;10.75;;;9.00;;
33270;SDS011;53180;51.344;6.152;2022-12-13T01:29:07;9.38;;;8.60;;
33270;SDS011;53180;51.344;6.152;2022-12-13T01:31:36;13.60;;;9.77;;
33270;SDS011;53180;51.344;6.152;2022-12-13T01:34:07;10.33;;;9.43;;
33270;SDS011;53180;51.344;6.152;2022-12-13T01:36:38;9.57;;;8.75;;
33270;SDS011;53180;51.344;6.152;2022-12-13T01:39:08;12.82;;;9.30;;
33270;SDS011;53180;51.344;6.152;2022-12-13T01:41:42;10.10;;;9.18;;
33270;SDS011;53180;51.344;6.152;2022-12-13T01:47:29;10.82;;;9.85;;
33270;SDS011;53180;51.344;6.152;2022-12-13T01:50:05;11.98;;;10.25;;
33270;SDS011;53180;51.344;6.152;2022-12-13T01:52:37;12.88;;;11.60;;
33270;SDS011;53180;51.344;6.152;2022-12-13T01:55:07;17.10;;;9.98;;
33270;SDS011;53180;51.344;6.152;2022-12-13T01:57:38;12.40;;;11.23;;
33270;SDS011;53180;51.344;6.152;2022-12-13T02:00:11;11.20;;;10.05;;
33270;SDS011;53180;51.344;6.152;2022-12-13T02:02:41;11.40;;;9.75;;
33270;SDS011;53180;51.344;6.152;2022-12-13T02:05:10;10.50;;;9.50;;
33270;SDS011;53180;51.344;6.152;2022-12-13T02:07:44;13.88;;;10.90;;
33270;SDS011;53180;51.344;6.152;2022-12-13T02:10:15;12.45;;;10.68;;
33270;SDS011;53180;51.344;6.152;2022-12-13T02:12:44;10.75;;;8.80;;
33270;SDS011;53180;51.344;6.152;2022-12-13T02:15:13;11.35;;;10.25;;
33270;SDS011;53180;51.344;6.152;2022-12-13T02:20:44;10.75;;;9.85;;
33270;SDS011;53180;51.344;6.152;2022-12-13T02:23:40;11.32;;;10.23;;
33270;SDS011;53180;51.344;6.152;2022-12-13T02:26:55;13.68;;;11.18;;
33270;SDS011;53180;51.344;6.152;2022-12-13T02:32:56;11.65;;;10.38;;
33270;SDS011;53180;51.344;6.152;2022-12-13T02:35:54;12.15;;;10.95;;
33270;SDS011;53180;51.344;6.152;2022-12-13T02:38:34;11.68;;;10.65;;
33270;SDS011;53180;51.344;6.152;2022-12-13T02:41:12;11.65;;;10.52;;
33270;SDS011;53180;51.344;6.152;2022-12-13T02:43:46;11.43;;;10.35;;
33270;SDS011;53180;51.344;6.152;2022-12-13T02:46:28;12.40;;;11.25;;
33270;SDS011;53180;51.344;6.152;2022-12-13T02:48:59;11.45;;;10.45;;
33270;SDS011;53180;51.344;6.152;2022-12-13T02:51:30;14.05;;;12.60;;
33270;SDS011;53180;51.344;6.152;2022-12-13T02:53:58;10.77;;;9.88;;
33270;SDS011;53180;51.344;6.152;2022-12-13T02:56:27;10.93;;;10.02;;
33270;SDS011;53180;51.344;6.152;2022-12-13T02:58:57;17.63;;;9.98;;
33270;SDS011;53180;51.344;6.152;2022-12-13T03:04:18;18.48;;;10.82;;
33270;SDS011;53180;51.344;6.152;2022-12-13T03:06:59;12.52;;;10.13;;
33270;SDS011;53180;51.344;6.152;2022-12-13T03:09:39;10.73;;;9.73;;
33270;SDS011;53180;51.344;6.152;2022-12-13T03:12:23;11.57;;;10.35;;
33270;SDS011;53180;51.344;6.152;2022-12-13T03:15:18;13.98;;;10.65;;
33270;SDS011;53180;51.344;6.152;2022-12-13T03:17:55;10.95;;;9.98;;
33270;SDS011;53180;51.344;6.152;2022-12-13T03:20:28;11.57;;;10.43;;
33270;SDS011;53180;51.344;6.152;2022-12-13T03:22:57;13.18;;;11.98;;
33270;SDS011;53180;51.344;6.152;2022-12-13T03:25:26;11.05;;;10.05;;
33270;SDS011;53180;51.344;6.152;2022-12-13T03:27:58;11.43;;;10.40;;
33270;SDS011;53180;51.344;6.152;2022-12-13T03:30:28;13.93;;;10.65;;
33270;SDS011;53180;51.344;6.152;2022-12-13T03:32:58;10.18;;;9.40;;
33270;SDS011;53180;51.344;6.152;2022-12-13T03:35:27;22.98;;;11.98;;
33270;SDS011;53180;51.344;6.152;2022-12-13T03:38:09;10.88;;;9.88;;
33270;SDS011;53180;51.344;6.152;2022-12-13T03:40:48;11.38;;;10.32;;
33270;SDS011;53180;51.344;6.152;2022-12-13T03:43:19;16.30;;;10.77;;
33270;SDS011;53180;51.344;6.152;2022-12-13T03:45:48;10.43;;;9.45;;
33270;SDS011;53180;51.344;6.152;2022-12-13T03:48:19;12.25;;;11.07;;
33270;SDS011;53180;51.344;6.152;2022-12-13T03:50:49;12.18;;;10.68;;
33270;SDS011;53180;51.344;6.152;2022-12-13T03:53:19;10.38;;;9.48;;
33270;SDS011;53180;51.344;6.152;2022-12-13T03:55:59;11.23;;;9.75;;
33270;SDS011;53180;51.344;6.152;2022-12-13T03:58:28;10.82;;;9.82;;
33270;SDS011;53180;51.344;6.152;2022-12-13T04:01:02;11.60;;;10.57;;
33270;SDS011;53180;51.344;6.152;2022-12-13T04:03:34;13.50;;;12.13;;
33270;SDS011;53180;51.344;6.152;2022-12-13T04:06:02;12.68;;;10.18;;
33270;SDS011;53180;51.344;6.152;2022-12-13T04:08:32;10.48;;;9.57;;
33270;SDS011;53180;51.344;6.152;2022-12-13T04:11:00;10.95;;;10.00;;
33270;SDS011;53180;51.344;6.152;2022-12-13T04:13:51;11.48;;;10.00;;
33270;SDS011;53180;51.344;6.152;2022-12-13T04:16:19;11.40;;;10.32;;
33270;SDS011;53180;51.344;6.152;2022-12-13T04:18:49;14.60;;;11.15;;
33270;SDS011;53180;51.344;6.152;2022-12-13T04:21:18;12.10;;;10.95;;
33270;SDS011;53180;51.344;6.152;2022-12-13T04:23:46;10.55;;;9.52;;
33270;SDS011;53180;51.344;6.152;2022-12-13T04:26:14;11.45;;;10.45;;
33270;SDS011;53180;51.344;6.152;2022-12-13T04:28:42;10.90;;;10.00;;
33270;SDS011;53180;51.344;6.152;2022-12-13T04:31:19;13.27;;;11.95;;
33270;SDS011;53180;51.344;6.152;2022-12-13T04:33:47;11.25;;;10.27;;
33270;SDS011;53180;51.344;6.152;2022-12-13T04:36:17;12.02;;;10.98;;
33270;SDS011;53180;51.344;6.152;2022-12-13T04:38:57;11.60;;;10.48;;
33270;SDS011;53180;51.344;6.152;2022-12-13T04:41:26;13.02;;;11.80;;
33270;SDS011;53180;51.344;6.152;2022-12-13T04:44:00;11.65;;;10.43;;
33270;SDS011;53180;51.344;6.152;2022-12-13T04:46:29;13.40;;;12.00;;
33270;SDS011;53180;51.344;6.152;2022-12-13T04:48:58;12.27;;;11.10;;
33270;SDS011;53180;51.344;6.152;2022-12-13T04:51:26;18.05;;;12.93;;
33270;SDS011;53180;51.344;6.152;2022-12-13T04:53:55;14.95;;;11.35;;
33270;SDS011;53180;51.344;6.152;2022-12-13T04:56:43;13.40;;;11.88;;
33270;SDS011;53180;51.344;6.152;2022-12-13T04:59:11;12.60;;;11.27;;
33270;SDS011;53180;51.344;6.152;2022-12-13T05:01:39;11.20;;;10.23;;
33270;SDS011;53180;51.344;6.152;2022-12-13T05:04:09;11.95;;;10.85;;
33270;SDS011;53180;51.344;6.152;2022-12-13T05:06:37;11.38;;;10.15;;
33270;SDS011;53180;51.344;6.152;2022-12-13T05:09:08;14.35;;;11.48;;
33270;SDS011;53180;51.344;6.152;2022-12-13T05:11:37;12.63;;;11.32;;
33270;SDS011;53180;51.344;6.152;2022-12-13T05:14:11;14.45;;;12.77;;
33270;SDS011;53180;51.344;6.152;2022-12-13T05:16:48;12.57;;;11.45;;
33270;SDS011;53180;51.344;6.152;2022-12-13T05:19:20;16.52;;;11.88;;
33270;SDS011;53180;51.344;6.152;2022-12-13T05:21:56;16.02;;;12.77;;
33270;SDS011;53180;51.344;6.152;2022-12-13T05:24:27;16.13;;;11.93;;
33270;SDS011;53180;51.344;6.152;2022-12-13T05:26:56;13.07;;;11.85;;
33270;SDS011;53180;51.344;6.152;2022-12-13T05:29:25;11.13;;;10.02;;
33270;SDS011;53180;51.344;6.152;2022-12-13T05:31:53;14.05;;;12.55;;
33270;SDS011;53180;51.344;6.152;2022-12-13T05:34:23;17.75;;;12.30;;
33270;SDS011;53180;51.344;6.152;2022-12-13T05:36:52;14.18;;;12.85;;
33270;SDS011;53180;51.344;6.152;2022-12-13T05:39:20;14.82;;;11.07;;
33270;SDS011;53180;51.344;6.152;2022-12-13T05:41:54;14.80;;;11.73;;
33270;SDS011;53180;51.344;6.152;2022-12-13T05:44:28;13.50;;;12.13;;
33270;SDS011;53180;51.344;6.152;2022-12-13T05:46:57;12.98;;;11.57;;
33270;SDS011;53180;51.344;6.152;2022-12-13T05:49:29;13.77;;;12.45;;
33270;SDS011;53180;51.344;6.152;2022-12-13T05:51:57;13.20;;;11.85;;
33270;SDS011;53180;51.344;6.152;2022-12-13T05:54:26;12.90;;;11.57;;
33270;SDS011;53180;51.344;6.152;2022-12-13T05:56:54;13.18;;;11.80;;
33270;SDS011;53180;51.344;6.152;2022-12-13T05:59:22;12.75;;;11.52;;
33270;SDS011;53180;51.344;6.152;2022-12-13T06:01:50;13.32;;;12.13;;
33270;SDS011;53180;51.344;6.152;2022-12-13T06:04:19;11.85;;;10.68;;
33270;SDS011;53180;51.344;6.152;2022-12-13T06:06:50;13.60;;;12.40;;
33270;SDS011;53180;51.344;6.152;2022-12-13T06:09:18;14.95;;;13.05;;
33270;SDS011;53180;51.344;6.152;2022-12-13T06:11:47;12.70;;;11.45;;
33270;SDS011;53180;51.344;6.152;2022-12-13T06:14:15;13.77;;;12.25;;
33270;SDS011;53180;51.344;6.152;2022-12-13T06:16:48;11.98;;;10.93;;
33270;SDS011;53180;51.344;6.152;2022-12-13T06:19:17;16.23;;;12.35;;
33270;SDS011;53180;51.344;6.152;2022-12-13T06:21:46;14.35;;;11.85;;
33270;SDS011;53180;51.344;6.152;2022-12-13T06:24:16;14.20;;;12.80;;
33270;SDS011;53180;51.344;6.152;2022-12-13T06:26:46;14.82;;;12.98;;
33270;SDS011;53180;51.344;6.152;2022-12-13T06:29:16;15.55;;;13.80;;
33270;SDS011;53180;51.344;6.152;2022-12-13T06:31:50;23.00;;;13.38;;
33270;SDS011;53180;51.344;6.152;2022-12-13T06:34:27;24.40;;;12.95;;
33270;SDS011;53180;51.344;6.152;2022-12-13T06:36:57;17.87;;;12.33;;
33270;SDS011;53180;51.344;6.152;2022-12-13T06:39:27;15.57;;;13.98;;
33270;SDS011;53180;51.344;6.152;2022-12-13T06:41:58;17.25;;;12.55;;
33270;SDS011;53180;51.344;6.152;2022-12-13T06:44:28;12.45;;;11.23;;
33270;SDS011;53180;51.344;6.152;2022-12-13T06:46:56;19.48;;;12.63;;
33270;SDS011;53180;51.344;6.152;2022-12-13T06:52:07;19.55;;;13.98;;
33270;SDS011;53180;51.344;6.152;2022-12-13T06:54:38;13.70;;;12.05;;
33270;SDS011;53180;51.344;6.152;2022-12-13T06:57:07;14.48;;;13.15;;
33270;SDS011;53180;51.344;6.152;2022-12-13T06:59:36;13.93;;;12.70;;
33270;SDS011;53180;51.344;6.152;2022-12-13T07:02:05;16.00;;;13.75;;
33270;SDS011;53180;51.344;6.152;2022-12-13T07:04:50;17.33;;;13.52;;
33270;SDS011;53180;51.344;6.152;2022-12-13T07:07:19;15.18;;;13.57;;
33270;SDS011;53180;51.344;6.152;2022-12-13T07:09:49;13.43;;;11.82;;
33270;SDS011;53180;51.344;6.152;2022-12-13T07:12:17;17.20;;;14.63;;
33270;SDS011;53180;51.344;6.152;2022-12-13T07:14:46;14.02;;;12.57;;
33270;SDS011;53180;51.344;6.152;2022-12-13T07:17:14;12.57;;;11.48;;
33270;SDS011;53180;51.344;6.152;2022-12-13T07:20:08;13.27;;;11.93;;
33270;SDS011;53180;51.344;6.152;2022-12-13T07:22:39;15.98;;;13.60;;
33270;SDS011;53180;51.344;6.152;2022-12-13T07:25:15;14.68;;;13.18;;
33270;SDS011;53180;51.344;6.152;2022-12-13T07:27:54;14.85;;;12.18;;
33270;SDS011;53180;51.344;6.152;2022-12-13T07:30:27;18.15;;;15.63;;
33270;SDS011;53180;51.344;6.152;2022-12-13T07:32:57;14.35;;;12.90;;
33270;SDS011;53180;51.344;6.152;2022-12-13T07:35:25;22.02;;;13.63;;
33270;SDS011;53180;51.344;6.152;2022-12-13T07:37:53;25.83;;;13.98;;
33270;SDS011;53180;51.344;6.152;2022-12-13T07:40:23;15.20;;;13.70;;
33270;SDS011;53180;51.344;6.152;2022-12-13T07:42:52;13.32;;;12.18;;
33270;SDS011;53180;51.344;6.152;2022-12-13T07:45:22;14.18;;;13.05;;
33270;SDS011;53180;51.344;6.152;2022-12-13T07:47:50;15.35;;;13.63;;
33270;SDS011;53180;51.344;6.152;2022-12-13T07:50:19;21.65;;;13.55;;
33270;SDS011;53180;51.344;6.152;2022-12-13T07:52:51;17.95;;;13.13;;
33270;SDS011;53180;51.344;6.152;2022-12-13T07:55:19;19.88;;;14.63;;
33270;SDS011;53180;51.344;6.152;2022-12-13T07:58:04;14.73;;;13.32;;
33270;SDS011;53180;51.344;6.152;2022-12-13T08:00:33;14.70;;;13.15;;
33270;SDS011;53180;51.344;6.152;2022-12-13T08:03:02;23.33;;;14.63;;
33270;SDS011;53180;51.344;6.152;2022-12-13T08:05:30;19.65;;;13.23;;
33270;SDS011;53180;51.344;6.152;2022-12-13T08:08:05;16.08;;;13.18;;
33270;SDS011;53180;51.344;6.152;2022-12-13T08:10:37;15.27;;;12.73;;
33270;SDS011;53180;51.344;6.152;2022-12-13T08:13:07;13.48;;;12.25;;
33270;SDS011;53180;51.344;6.152;2022-12-13T08:15:35;19.02;;;14.02;;
33270;SDS011;53180;51.344;6.152;2022-12-13T08:18:04;13.50;;;12.32;;
33270;SDS011;53180;51.344;6.152;2022-12-13T08:20:32;15.05;;;13.48;;
33270;SDS011;53180;51.344;6.152;2022-12-13T08:23:00;21.55;;;14.15;;
33270;SDS011;53180;51.344;6.152;2022-12-13T08:25:28;17.02;;;12.80;;
33270;SDS011;53180;51.344;6.152;2022-12-13T08:27:57;13.65;;;11.18;;
33270;SDS011;53180;51.344;6.152;2022-12-13T08:30:29;14.02;;;12.60;;
33270;SDS011;53180;51.344;6.152;2022-12-13T08:32:58;13.68;;;12.48;;
33270;SDS011;53180;51.344;6.152;2022-12-13T08:35:30;15.55;;;13.52;;
33270;SDS011;53180;51.344;6.152;2022-12-13T08:38:00;15.85;;;14.23;;
33270;SDS011;53180;51.344;6.152;2022-12-13T08:40:29;16.60;;;12.35;;
33270;SDS011;53180;51.344;6.152;2022-12-13T08:42:57;15.23;;;12.93;;
33270;SDS011;53180;51.344;6.152;2022-12-13T08:45:25;12.05;;;10.93;;
33270;SDS011;53180;51.344;6.152;2022-12-13T08:47:57;13.52;;;12.15;;
33270;SDS011;53180;51.344;6.152;2022-12-13T08:50:26;14.55;;;13.18;;
33270;SDS011;53180;51.344;6.152;2022-12-13T08:52:55;14.05;;;12.60;;
33270;SDS011;53180;51.344;6.152;2022-12-13T08:55:24;14.48;;;12.93;;
33270;SDS011;53180;51.344;6.152;2022-12-13T08:57:57;13.90;;;11.25;;
33270;SDS011;53180;51.344;6.152;2022-12-13T09:00:30;12.25;;;11.20;;
33270;SDS011;53180;51.344;6.152;2022-12-13T09:03:03;13.45;;;11.75;;
33270;SDS011;53180;51.344;6.152;2022-12-13T09:05:36;15.60;;;13.10;;
33270;SDS011;53180;51.344;6.152;2022-12-13T09:08:04;16.25;;;12.45;;
33270;SDS011;53180;51.344;6.152;2022-12-13T09:10:56;12.55;;;11.43;;
33270;SDS011;53180;51.344;6.152;2022-12-13T09:13:26;12.52;;;10.77;;
33270;SDS011;53180;51.344;6.152;2022-12-13T09:15:57;14.23;;;12.13;;
33270;SDS011;53180;51.344;6.152;2022-12-13T09:18:31;16.42;;;11.30;;
33270;SDS011;53180;51.344;6.152;2022-12-13T09:21:04;11.75;;;10.68;;
33270;SDS011;53180;51.344;6.152;2022-12-13T09:23:36;14.02;;;10.57;;
33270;SDS011;53180;51.344;6.152;2022-12-13T09:26:12;15.45;;;12.23;;
33270;SDS011;53180;51.344;6.152;2022-12-13T09:28:42;13.10;;;11.60;;
33270;SDS011;53180;51.344;6.152;2022-12-13T09:31:11;13.88;;;10.63;;
33270;SDS011;53180;51.344;6.152;2022-12-13T09:33:43;11.35;;;10.20;;
33270;SDS011;53180;51.344;6.152;2022-12-13T09:36:13;14.43;;;11.90;;
33270;SDS011;53180;51.344;6.152;2022-12-13T09:38:43;11.43;;;8.70;;
33270;SDS011;53180;51.344;6.152;2022-12-13T09:41:13;11.43;;;10.23;;
33270;SDS011;53180;51.344;6.152;2022-12-13T09:43:55;14.35;;;11.65;;
33270;SDS011;53180;51.344;6.152;2022-12-13T09:46:28;13.57;;;10.95;;
33270;SDS011;53180;51.344;6.152;2022-12-13T09:49:13;10.27;;;9.32;;
33270;SDS011;53180;51.344;6.152;2022-12-13T09:51:49;11.25;;;10.15;;
33270;SDS011;53180;51.344;6.152;2022-12-13T09:54:41;11.27;;;10.07;;
33270;SDS011;53180;51.344;6.152;2022-12-13T09:57:15;12.43;;;10.50;;
33270;SDS011;53180;51.344;6.152;2022-12-13T09:59:59;13.98;;;10.32;;
33270;SDS011;53180;51.344;6.152;2022-12-13T10:02:30;9.82;;;8.88;;
33270;SDS011;53180;51.344;6.152;2022-12-13T10:05:12;15.15;;;9.80;;
33270;SDS011;53180;51.344;6.152;2022-12-13T10:07:50;11.18;;;9.73;;
33270;SDS011;53180;51.344;6.152;2022-12-13T10:10:21;17.27;;;9.80;;
33270;SDS011;53180;51.344;6.152;2022-12-13T10:12:51;10.82;;;9.88;;
33270;SDS011;53180;51.344;6.152;2022-12-13T10:15:25;11.90;;;9.73;;
33270;SDS011;53180;51.344;6.152;2022-12-13T10:17:55;10.00;;;9.10;;
33270;SDS011;53180;51.344;6.152;2022-12-13T10:20:27;11.52;;;10.38;;
33270;SDS011;53180;51.344;6.152;2022-12-13T10:22:57;12.35;;;10.38;;
33270;SDS011;53180;51.344;6.152;2022-12-13T10:25:46;10.93;;;9.85;;
33270;SDS011;53180;51.344;6.152;2022-12-13T10:28:29;14.68;;;10.85;;
33270;SDS011;53180;51.344;6.152;2022-12-13T10:33:28;12.80;;;8.90;;
33270;SDS011;53180;51.344;6.152;2022-12-13T10:36:13;14.75;;;9.70;;
33270;SDS011;53180;51.344;6.152;2022-12-13T10:38:48;10.07;;;8.45;;
33270;SDS011;53180;51.344;6.152;2022-12-13T10:41:30;10.07;;;9.07;;
33270;SDS011;53180;51.344;6.152;2022-12-13T10:44:08;9.95;;;8.95;;
33270;SDS011;53180;51.344;6.152;2022-12-13T10:46:48;10.40;;;9.48;;
33270;SDS011;53180;51.344;6.152;2022-12-13T10:49:21;8.70;;;7.85;;
33270;SDS011;53180;51.344;6.152;2022-12-13T10:51:52;10.15;;;9.05;;
33270;SDS011;53180;51.344;6.152;2022-12-13T10:54:24;9.05;;;8.18;;
33270;SDS011;53180;51.344;6.152;2022-12-13T10:57:13;9.15;;;8.27;;
33270;SDS011;53180;51.344;6.152;2022-12-13T10:59:42;10.70;;;9.52;;
33270;SDS011;53180;51.344;6.152;2022-12-13T11:02:24;14.20;;;8.07;;
33270;SDS011;53180;51.344;6.152;2022-12-13T11:07:53;8.93;;;8.05;;
33270;SDS011;53180;51.344;6.152;2022-12-13T11:10:27;9.60;;;8.48;;
33270;SDS011;53180;51.344;6.152;2022-12-13T11:12:58;10.65;;;8.45;;
33270;SDS011;53180;51.344;6.152;2022-12-13T11:15:28;8.38;;;7.57;;
33270;SDS011;53180;51.344;6.152;2022-12-13T11:20:30;8.32;;;7.50;;
33270;SDS011;53180;51.344;6.152;2022-12-13T11:23:03;9.27;;;7.50;;
33270;SDS011;53180;51.344;6.152;2022-12-13T11:25:38;9.70;;;7.45;;
33270;SDS011;53180;51.344;6.152;2022-12-13T11:28:15;8.20;;;7.50;;
33270;SDS011;53180;51.344;6.152;2022-12-13T11:31:15;9.48;;;8.57;;
33270;SDS011;53180;51.344;6.152;2022-12-13T11:33:54;7.35;;;6.65;;
33270;SDS011;53180;51.344;6.152;2022-12-13T11:36:31;8.32;;;7.47;;
33270;SDS011;53180;51.344;6.152;2022-12-13T11:39:17;7.63;;;6.93;;
33270;SDS011;53180;51.344;6.152;2022-12-13T11:41:52;9.57;;;7.32;;
33270;SDS011;53180;51.344;6.152;2022-12-13T11:44:27;9.48;;;8.32;;
33270;SDS011;53180;51.344;6.152;2022-12-13T11:47:14;8.52;;;7.63;;
33270;SDS011;53180;51.344;6.152;2022-12-13T11:49:50;7.50;;;6.78;;
33270;SDS011;53180;51.344;6.152;2022-12-13T11:52:20;7.47;;;6.82;;
33270;SDS011;53180;51.344;6.152;2022-12-13T11:54:57;8.70;;;7.90;;
33270;SDS011;53180;51.344;6.152;2022-12-13T11:57:30;8.23;;;7.53;;
33270;SDS011;53180;51.344;6.152;2022-12-13T12:00:16;11.07;;;9.52;;
33270;SDS011;53180;51.344;6.152;2022-12-13T12:03:06;10.07;;;8.07;;
33270;SDS011;53180;51.344;6.152;2022-12-13T12:05:45;8.63;;;7.75;;
33270;SDS011;53180;51.344;6.152;2022-12-13T12:08:22;7.75;;;7.03;;
33270;SDS011;53180;51.344;6.152;2022-12-13T12:11:02;8.57;;;7.65;;
33270;SDS011;53180;51.344;6.152;2022-12-13T12:13:39;9.68;;;8.20;;
33270;SDS011;53180;51.344;6.152;2022-12-13T12:16:20;10.45;;;9.35;;
33270;SDS011;53180;51.344;6.152;2022-12-13T12:18:57;8.87;;;8.07;;
33270;SDS011;53180;51.344;6.152;2022-12-13T12:21:37;7.53;;;6.85;;
33270;SDS011;53180;51.344;6.152;2022-12-13T12:24:44;7.75;;;7.05;;
33270;SDS011;53180;51.344;6.152;2022-12-13T12:27:43;9.55;;;8.63;;
33270;SDS011;53180;51.344;6.152;2022-12-13T12:30:20;10.52;;;8.63;;
33270;SDS011;53180;51.344;6.152;2022-12-13T12:32:53;14.48;;;8.75;;
33270;SDS011;53180;51.344;6.152;2022-12-13T12:35:41;8.68;;;7.85;;
33270;SDS011;53180;51.344;6.152;2022-12-13T12:41:25;7.53;;;6.40;;
33270;SDS011;53180;51.344;6.152;2022-12-13T12:44:13;7.95;;;7.15;;
33270;SDS011;53180;51.344;6.152;2022-12-13T12:46:59;7.38;;;6.65;;
33270;SDS011;53180;51.344;6.152;2022-12-13T12:50:17;9.02;;;8.13;;
33270;SDS011;53180;51.344;6.152;2022-12-13T12:52:59;12.85;;;7.72;;
33270;SDS011;53180;51.344;6.152;2022-12-13T12:55:50;9.55;;;7.43;;
33270;SDS011;53180;51.344;6.152;2022-12-13T12:58:29;7.55;;;6.95;;
33270;SDS011;53180;51.344;6.152;2022-12-13T13:01:15;9.73;;;7.60;;
33270;SDS011;53180;51.344;6.152;2022-12-13T13:04:08;7.30;;;6.60;;
33270;SDS011;53180;51.344;6.152;2022-12-13T13:06:48;7.70;;;7.07;;
33270;SDS011;53180;51.344;6.152;2022-12-13T13:09:27;6.85;;;6.35;;
33270;SDS011;53180;51.344;6.152;2022-12-13T13:11:56;7.25;;;6.57;;
33270;SDS011;53180;51.344;6.152;2022-12-13T13:14:49;8.52;;;7.72;;
33270;SDS011;53180;51.344;6.152;2022-12-13T13:20:15;8.82;;;7.95;;
33270;SDS011;53180;51.344;6.152;2022-12-13T13:22:48;8.48;;;7.68;;
33270;SDS011;53180;51.344;6.152;2022-12-13T13:25:35;20.05;;;9.40;;
33270;SDS011;53180;51.344;6.152;2022-12-13T13:28:24;7.35;;;6.65;;
33270;SDS011;53180;51.344;6.152;2022-12-13T13:31:02;7.82;;;7.03;;
33270;SDS011;53180;51.344;6.152;2022-12-13T13:33:40;8.40;;;7.65;;
33270;SDS011;53180;51.344;6.152;2022-12-13T13:39:18;9.93;;;7.85;;
33270;SDS011;53180;51.344;6.152;2022-12-13T13:42:22;8.10;;;7.38;;
33270;SDS011;53180;51.344;6.152;2022-12-13T13:44:53;10.13;;;7.40;;
33270;SDS011;53180;51.344;6.152;2022-12-13T13:54:51;8.98;;;8.15;;
33270;SDS011;53180;51.344;6.152;2022-12-13T14:01:29;11.48;;;7.85;;
33270;SDS011;53180;51.344;6.152;2022-12-13T14:08:18;8.32;;;7.22;;
33270;SDS011;53180;51.344;6.152;2022-12-13T14:11:02;7.80;;;7.10;;
33270;SDS011;53180;51.344;6.152;2022-12-13T14:14:19;7.53;;;6.85;;
33270;SDS011;53180;51.344;6.152;2022-12-13T14:23:34;9.45;;;7.78;;
33270;SDS011;53180;51.344;6.152;2022-12-13T14:26:26;7.88;;;7.25;;
33270;SDS011;53180;51.344;6.152;2022-12-13T14:29:09;9.00;;;6.85;;
33270;SDS011;53180;51.344;6.152;2022-12-13T14:31:42;8.98;;;7.82;;
33270;SDS011;53180;51.344;6.152;2022-12-13T14:34:18;7.10;;;6.50;;
33270;SDS011;53180;51.344;6.152;2022-12-13T14:36:54;9.35;;;7.50;;
33270;SDS011;53180;51.344;6.152;2022-12-13T14:39:24;9.32;;;7.15;;
33270;SDS011;53180;51.344;6.152;2022-12-13T14:41:56;8.35;;;7.55;;
33270;SDS011;53180;51.344;6.152;2022-12-13T14:44:27;8.70;;;7.80;;
33270;SDS011;53180;51.344;6.152;2022-12-13T14:46:57;7.85;;;7.15;;
33270;SDS011;53180;51.344;6.152;2022-12-13T14:49:29;9.18;;;8.25;;
33270;SDS011;53180;51.344;6.152;2022-12-13T14:52:02;8.88;;;7.97;;
33270;SDS011;53180;51.344;6.152;2022-12-13T14:54:35;8.68;;;7.88;;
33270;SDS011;53180;51.344;6.152;2022-12-13T14:57:13;20.05;;;8.43;;
33270;SDS011;53180;51.344;6.152;2022-12-13T14:59:45;7.95;;;7.22;;
33270;SDS011;53180;51.344;6.152;2022-12-13T15:02:16;7.35;;;6.75;;
33270;SDS011;53180;51.344;6.152;2022-12-13T15:04:57;7.70;;;7.00;;
33270;SDS011;53180;51.344;6.152;2022-12-13T15:07:27;7.45;;;6.72;;
33270;SDS011;53180;51.344;6.152;2022-12-13T15:10:02;8.27;;;7.47;;
33270;SDS011;53180;51.344;6.152;2022-12-13T15:15:21;8.25;;;7.45;;
33270;SDS011;53180;51.344;6.152;2022-12-13T15:18:14;8.10;;;7.40;;
33270;SDS011;53180;51.344;6.152;2022-12-13T15:20:50;11.88;;;7.60;;
33270;SDS011;53180;51.344;6.152;2022-12-13T15:23:21;7.72;;;7.03;;
33270;SDS011;53180;51.344;6.152;2022-12-13T15:25:54;8.70;;;7.88;;
33270;SDS011;53180;51.344;6.152;2022-12-13T15:28:28;7.55;;;6.85;;
33270;SDS011;53180;51.344;6.152;2022-12-13T15:30:59;7.82;;;7.03;;
33270;SDS011;53180;51.344;6.152;2022-12-13T15:33:30;8.82;;;7.50;;
33270;SDS011;53180;51.344;6.152;2022-12-13T15:36:08;8.68;;;7.65;;
33270;SDS011;53180;51.344;6.152;2022-12-13T15:38:42;9.10;;;8.20;;
33270;SDS011;53180;51.344;6.152;2022-12-13T15:41:18;7.68;;;6.90;;
33270;SDS011;53180;51.344;6.152;2022-12-13T15:43:55;8.07;;;7.20;;
33270;SDS011;53180;51.344;6.152;2022-12-13T15:46:26;8.48;;;7.68;;
33270;SDS011;53180;51.344;6.152;2022-12-13T15:48:57;7.97;;;7.25;;
33270;SDS011;53180;51.344;6.152;2022-12-13T15:51:27;7.70;;;7.10;;
33270;SDS011;53180;51.344;6.152;2022-12-13T15:56:59;7.93;;;7.22;;
33270;SDS011;53180;51.344;6.152;2022-12-13T15:59:33;10.52;;;8.82;;
33270;SDS011;53180;51.344;6.152;2022-12-13T16:04:36;7.40;;;6.80;;
33270;SDS011;53180;51.344;6.152;2022-12-13T16:07:04;7.47;;;6.97;;
33270;SDS011;53180;51.344;6.152;2022-12-13T16:09:42;6.82;;;6.32;;
33270;SDS011;53180;51.344;6.152;2022-12-13T16:12:18;9.10;;;7.63;;
33270;SDS011;53180;51.344;6.152;2022-12-13T16:14:51;7.70;;;7.00;;
33270;SDS011;53180;51.344;6.152;2022-12-13T16:17:34;7.93;;;7.13;;